Aérodrome :
LOGIN :

S'inscrire | Disclaimer

   EN    FR    IT 

 










Légende :    VFR   VFR Marginal   IFR   IFR Intensif   IFR Très Intensif
Visi : 
Plafond : 
>= 8 km
>= 3000ft
5 à 8 km
1000 à 3000 ft
1500m à 5 km
500 à 1000 ft
800 à 1500m
200 à 500 ft
< 800m
< 200 ft
Symboles :   Orages  Brouillard  Fortes neiges  Fortes précipitations  Vent > 20 kt
SIGMETs :   Divers  Orages  Givrage  Turbulence  Onde Orograph.  Cendres Volcan.







- Altitude de l'aérodrome : 74 ft
- Code IATA : MRS
- Voir les cartes d'approche


LFML - Marseille / Marignane

DERNIER METAR :
  • 200600Z AUTO 13001KT CAVOK 21/16 Q1018 NOSIG

METARs EXPIRÉS :
  • 200530Z AUTO 14003KT CAVOK 19/16 Q1018 NOSIG
  • 200500Z AUTO 13005KT CAVOK 18/16 Q1018 NOSIG
  • 200430Z AUTO 13004KT 9999 FEW010 18/16 Q1018 NOSIG
  • 200400Z AUTO VRB02KT CAVOK 19/16 Q1018 NOSIG
  • 200330Z AUTO 11002KT CAVOK 18/16 Q1018 NOSIG

TAF TAF LFML
Valide du 20 à 03h jusqu'au 21 à 09h UTC


200200Z 2003/2109 VRB05KT CAVOK TX29/2011Z TN19/2102Z
TEMPO 2014/2017 20010KT
ATIS : +33 4 42 31 15 15
Pas de NOTAMs connus pour ce terrain.



MET'MAP, la Météo Aéronautique d'un coup d'oeil ! - Copyright ORBIFLY Décembre 2007 - Disclaimer

ORBIFLY MET'MAP TEAM :

Programmation & Développement : Alexandra Zaïnal
Conception & Développement : Baudouin d'Aumeries
Co-Programmation & Développement : Marc-Olivier Méhu
Soutien technique & logistique : Manuel Goepfert

Contact : metmap@orbifly.com




SOURCES & CREDITS :

   NOAA